LFRL

Details ICAO LFRL
Name Lanveoc Poulmic Navy
Region France
Timezone Europe/Paris (UTC+1.0)
Plans Departing 6
Arriving 4
Stats Elevation 259 ft / 79 m (AMSL)
Location 48.281911° -4.443909°
Runways 2
Magnetic Variation 1.565° W
Sunrise 2017-12-13 08:01:56 UTC / 2017-12-13 09:01:56 Local
Sunset 2017-12-13 16:24:52 UTC / 2017-12-13 17:24:52 Local
Advertisement - Login to hide

Runways

ID Width Length Bearing (true) Bearing (mag) Surface Threshold Offset Overrun Length
05 131 ft / 40 m 3,674 ft / 1,120 m 51.02° 52.59° Asphalt 0 ft / 0 m 0 ft / 0 m
13 177 ft / 54 m 2,132 ft / 650 m 128.25° 129.82° Grass 0 ft / 0 m 0 ft / 0 m
23 131 ft / 40 m 3,674 ft / 1,120 m 231.03° 232.60° Asphalt 0 ft / 0 m 0 ft / 0 m
31 177 ft / 54 m 2,132 ft / 650 m 308.25° 309.82° Grass 0 ft / 0 m 0 ft / 0 m

Map

Weather


0- 5 10 15 20 25 30 35+ Temperature / ° C

Clouds and Precipitation
Forecast for 2017-12-13 12:00 UTC. Updated 25 minutes ago

Ground ~20,000 ft ~40,000 ft Winds

METAR

LFRL 130730Z AUTO 24010KT 9999 FEW019/// SCT026/// OVC058/// 11/08 Q1008 BECMG BKN011 OVC035

TAF

Not found

Frequencies

Ground 121.90 MHz LANVEOC GND
Tower 122.10 MHz LANVEOC TWR
Approach 119.30 MHz LANVEOC APP
Tower 119.70 MHz LANVEOC TWR
Tower 123.20 MHz LANVEOC TWR
Approach 120.60 MHz LANVEOC APP
Warning: Do not use this data for real-world aviation or navigation. No guarantee of current accuracy is given.